Time;durP1;ratioP1;P1;durP2;ratioP2;P2;SDS_P1;SDS_P2;PMS_P1;PMS_P2;Temp;Humidity;BMP_temperature;BMP_pressure;BME280_temperature;BME280_humidity;BME280_pressure;Samples;Min_cycle;Max_cycle;Signal;HPM_P1;HPM_P2
2021/10/29 00:00:35;;;;;;;1.45;1.35;;;10.40;99.90;;;;;;5053694;28;20597;-86
2021/10/29 00:03:02;;;;;;;0.85;0.85;;;10.40;99.90;;;;;;5052630;28;20646;-86
2021/10/29 00:05:28;;;;;;;4.10;2.67;;;10.30;99.90;;;;;;5034661;28;20208;-86
2021/10/29 00:07:54;;;;;;;0.70;0.70;;;10.30;99.90;;;;;;5033608;28;20304;-86
2021/10/29 00:10:20;;;;;;;6.18;2.08;;;10.30;99.90;;;;;;5052498;28;20319;-86
2021/10/29 00:12:47;;;;;;;2.10;2.00;;;10.30;99.90;;;;;;5052318;28;20649;-85
2021/10/29 00:15:13;;;;;;;1.63;1.52;;;10.30;99.90;;;;;;5034012;28;20284;-85
2021/10/29 00:17:39;;;;;;;1.15;1.15;;;10.20;99.90;;;;;;5035333;28;20677;-86
2021/10/29 00:20:06;;;;;;;1.10;1.10;;;10.20;99.90;;;;;;5034135;28;20835;-85
2021/10/29 00:22:32;;;;;;;0.82;0.82;;;10.10;99.90;;;;;;5052151;28;20224;-85
2021/10/29 00:24:57;;;;;;;1.35;1.30;;;10.10;99.90;;;;;;5052171;28;20201;-86
2021/10/29 00:27:23;;;;;;;1.48;1.38;;;10.00;99.90;;;;;;5051818;28;20231;-86
2021/10/29 00:29:49;;;;;;;1.88;1.77;;;10.00;99.90;;;;;;5034135;28;20221;-86
2021/10/29 00:32:15;;;;;;;1.00;1.00;;;9.90;99.90;;;;;;5033941;28;20205;-86
2021/10/29 00:34:41;;;;;;;1.02;1.02;;;9.90;99.90;;;;;;5033884;28;20728;-86
2021/10/29 00:37:07;;;;;;;1.38;1.30;;;9.80;99.90;;;;;;5052556;28;20197;-86
2021/10/29 00:39:33;;;;;;;1.38;1.08;;;9.70;99.90;;;;;;5035152;28;20231;-86
2021/10/29 00:41:59;;;;;;;1.38;1.23;;;9.60;99.90;;;;;;5051575;28;20201;-85
2021/10/29 00:44:26;;;;;;;2.45;2.17;;;9.60;99.90;;;;;;5034918;28;20299;-86
2021/10/29 00:46:53;;;;;;;3.30;1.65;;;9.50;99.90;;;;;;5033657;28;20201;-87
2021/10/29 00:49:20;;;;;;;1.02;1.02;;;9.50;99.90;;;;;;5034124;28;20212;-86
2021/10/29 00:51:46;;;;;;;0.80;0.80;;;9.50;99.90;;;;;;5033681;28;20700;-86
2021/10/29 00:54:16;;;;;;;5.95;2.70;;;9.50;99.90;;;;;;5033524;28;20202;-86
2021/10/29 00:56:43;;;;;;;2.15;1.13;;;9.60;99.90;;;;;;5045141;28;20205;-86
2021/10/29 00:59:09;;;;;;;1.02;0.95;;;9.50;99.90;;;;;;5032819;28;20224;-86
2021/10/29 01:01:35;;;;;;;1.33;1.27;;;9.60;99.90;;;;;;5034682;28;20669;-86
2021/10/29 01:04:00;;;;;;;3.60;1.23;;;9.60;99.90;;;;;;5033574;28;20206;-87
2021/10/29 01:06:27;;;;;;;1.05;1.05;;;9.60;99.90;;;;;;5049383;28;20736;-87
2021/10/29 01:08:53;;;;;;;1.30;1.20;;;9.60;99.90;;;;;;5033689;28;20564;-87
2021/10/29 01:11:20;;;;;;;1.45;1.35;;;9.60;99.90;;;;;;5051144;28;20339;-86
2021/10/29 01:13:49;;;;;;;0.70;0.70;;;9.60;99.90;;;;;;5051406;28;20292;-87
2021/10/29 01:16:16;;;;;;;0.65;0.65;;;9.70;99.90;;;;;;5033429;28;20288;-86
2021/10/29 01:18:43;;;;;;;1.52;1.42;;;9.70;99.90;;;;;;5051186;28;20244;-87
2021/10/29 01:21:09;;;;;;;1.27;1.17;;;9.70;99.90;;;;;;5033432;28;20220;-86
2021/10/29 01:23:36;;;;;;;0.95;0.95;;;9.80;99.90;;;;;;5033275;28;20212;-87
2021/10/29 01:26:08;;;;;;;0.60;0.60;;;9.80;99.90;;;;;;5033386;28;20749;-87
2021/10/29 01:28:34;;;;;;;1.60;1.30;;;9.80;99.90;;;;;;5025944;28;20312;-86
2021/10/29 01:31:01;;;;;;;1.75;1.58;;;9.80;99.90;;;;;;5024347;28;20202;-87
2021/10/29 01:33:28;;;;;;;1.00;1.00;;;9.90;99.90;;;;;;5034410;28;20279;-86
2021/10/29 01:35:54;;;;;;;1.00;1.00;;;9.90;99.90;;;;;;5033241;28;20297;-86
2021/10/29 01:38:21;;;;;;;0.60;0.60;;;9.90;99.90;;;;;;5036464;28;20205;-86
2021/10/29 01:40:47;;;;;;;0.93;0.93;;;9.90;99.90;;;;;;5037125;28;20247;-86
2021/10/29 01:43:13;;;;;;;0.98;0.98;;;9.90;99.90;;;;;;5037206;28;20696;-86
2021/10/29 01:45:39;;;;;;;1.35;1.25;;;9.90;99.90;;;;;;5038208;28;20209;-86
2021/10/29 01:48:05;;;;;;;0.80;0.80;;;10.00;99.90;;;;;;5037410;28;20288;-86
2021/10/29 01:50:31;;;;;;;0.77;0.77;;;10.00;99.90;;;;;;5037531;28;20237;-86
2021/10/29 01:52:57;;;;;;;0.80;0.80;;;10.00;99.90;;;;;;5055990;28;20233;-86
2021/10/29 01:55:23;;;;;;;1.02;1.02;;;10.00;99.90;;;;;;5036861;28;20213;-86
2021/10/29 01:57:48;;;;;;;2.65;2.45;;;10.00;99.90;;;;;;5037082;28;20205;-88
2021/10/29 02:00:15;;;;;;;0.90;0.88;;;10.00;99.90;;;;;;5037138;28;20208;-89
2021/10/29 02:02:41;;;;;;;1.48;1.13;;;10.00;99.90;;;;;;5034739;28;20198;-87
2021/10/29 02:05:08;;;;;;;0.77;0.77;;;10.00;99.90;;;;;;5037124;28;20209;-88
2021/10/29 02:07:34;;;;;;;2.00;1.85;;;10.00;99.90;;;;;;5056002;28;20673;-89
2021/10/29 02:10:00;;;;;;;0.90;0.90;;;10.00;99.90;;;;;;5035673;28;20204;-87
2021/10/29 02:12:26;;;;;;;1.45;1.35;;;10.00;99.90;;;;;;5036642;28;20217;-88
2021/10/29 02:14:52;;;;;;;0.57;0.57;;;10.10;99.90;;;;;;5036766;28;20628;-88
2021/10/29 02:17:18;;;;;;;1.38;1.20;;;10.10;99.90;;;;;;5036751;28;20202;-87
2021/10/29 02:19:44;;;;;;;1.13;1.02;;;10.10;99.90;;;;;;5036743;28;20224;-87
2021/10/29 02:22:10;;;;;;;1.33;1.23;;;10.10;99.90;;;;;;5036772;28;20206;-88
2021/10/29 02:24:35;;;;;;;1.15;1.15;;;10.10;99.90;;;;;;5036564;28;20202;-88
2021/10/29 02:27:02;;;;;;;0.80;0.80;;;10.10;99.90;;;;;;5054745;28;20193;-88
2021/10/29 02:29:28;;;;;;;0.70;0.70;;;10.10;99.90;;;;;;5036499;28;20216;-88
2021/10/29 02:31:54;;;;;;;1.67;1.50;;;10.10;99.90;;;;;;5036304;28;20209;-87
2021/10/29 02:34:20;;;;;;;0.85;0.85;;;10.10;99.90;;;;;;5036294;28;20197;-88
2021/10/29 02:36:45;;;;;;;0.80;0.80;;;10.10;99.90;;;;;;5036467;28;20209;-88
2021/10/29 02:39:11;;;;;;;0.93;0.90;;;10.20;99.90;;;;;;5036466;28;20217;-88
2021/10/29 02:41:38;;;;;;;0.77;0.77;;;10.20;99.90;;;;;;5036392;28;20201;-89
2021/10/29 02:44:04;;;;;;;1.48;1.33;;;10.20;99.90;;;;;;5038089;28;20201;-88
2021/10/29 02:46:30;;;;;;;4.32;1.77;;;10.20;99.90;;;;;;5035801;28;20198;-88
2021/10/29 02:48:56;;;;;;;1.15;1.15;;;10.20;99.90;;;;;;5036528;28;20213;-88
2021/10/29 02:51:22;;;;;;;1.80;1.45;;;10.20;99.90;;;;;;5034997;28;20235;-88
2021/10/29 02:53:48;;;;;;;1.02;1.02;;;10.20;99.90;;;;;;5035939;28;20202;-88
2021/10/29 02:56:13;;;;;;;1.55;1.45;;;10.20;99.90;;;;;;5035879;28;20316;-87
2021/10/29 02:58:40;;;;;;;1.02;0.90;;;10.20;99.90;;;;;;5035712;28;20201;-88
2021/10/29 03:01:06;;;;;;;0.90;0.90;;;10.20;99.90;;;;;;5035266;28;20205;-88
2021/10/29 03:03:32;;;;;;;1.63;1.52;;;10.10;99.90;;;;;;5034662;28;20204;-87
2021/10/29 03:05:58;;;;;;;1.17;1.00;;;10.10;99.90;;;;;;5035953;28;20664;-86
2021/10/29 03:08:23;;;;;;;1.38;1.30;;;10.10;99.90;;;;;;5054810;28;20208;-86
2021/10/29 03:10:49;;;;;;;0.77;0.77;;;10.10;99.90;;;;;;5035606;28;20316;-86
2021/10/29 03:13:16;;;;;;;7.97;2.40;;;10.20;99.90;;;;;;5035557;28;20247;-86
2021/10/29 03:15:43;;;;;;;1.02;1.02;;;10.10;99.90;;;;;;5035374;28;20201;-86
2021/10/29 03:18:09;;;;;;;2.05;1.50;;;10.20;99.90;;;;;;5035512;28;20700;-87
2021/10/29 03:20:35;;;;;;;1.05;1.02;;;10.20;99.90;;;;;;5031882;28;20213;-86
2021/10/29 03:23:01;;;;;;;1.75;1.27;;;10.20;99.90;;;;;;5021302;28;20240;-87
2021/10/29 03:25:26;;;;;;;2.17;1.95;;;10.20;99.90;;;;;;5035152;28;20202;-87
2021/10/29 03:27:52;;;;;;;0.80;0.80;;;10.20;99.90;;;;;;5035299;28;20711;-86
2021/10/29 03:30:19;;;;;;;7.82;2.25;;;10.20;99.90;;;;;;5035201;28;20224;-86
2021/10/29 03:32:45;;;;;;;4.28;1.73;;;10.20;99.90;;;;;;5035796;28;20206;-86
2021/10/29 03:35:11;;;;;;;0.70;0.70;;;10.20;99.90;;;;;;5034454;28;20217;-87
2021/10/29 03:40:44;;;;;;;1.33;1.23;;;10.20;99.90;;;;;;5053325;28;20212;-86
2021/10/29 03:48:16;;;;;;;0.73;0.73;;;10.20;99.90;;;;;;5053154;28;20680;-88
2021/10/29 03:50:47;;;;;;;1.00;1.00;;;10.20;99.90;;;;;;5034922;28;20748;-87
2021/10/29 03:56:05;;;;;;;1.33;1.23;;;10.20;99.90;;;;;;5027367;28;20212;-87
2021/10/29 03:58:31;;;;;;;1.40;1.30;;;10.10;99.90;;;;;;5034614;28;20204;-87
2021/10/29 04:00:57;;;;;;;0.93;0.93;;;10.10;99.90;;;;;;5034155;28;20544;-87
2021/10/29 04:03:23;;;;;;;0.68;0.68;;;10.10;99.90;;;;;;5034672;28;20216;-87
2021/10/29 04:05:48;;;;;;;0.70;0.70;;;10.10;99.90;;;;;;5034928;28;20260;-86
2021/10/29 04:08:14;;;;;;;0.95;0.95;;;10.10;99.90;;;;;;5034588;28;20210;-87
2021/10/29 04:10:43;;;;;;;0.60;0.60;;;10.10;99.90;;;;;;5034133;28;20251;-87
2021/10/29 04:13:10;;;;;;;1.15;1.13;;;10.10;99.90;;;;;;5034277;28;20225;-86
2021/10/29 04:15:39;;;;;;;0.70;0.70;;;10.20;99.90;;;;;;5035559;28;20255;-87
2021/10/29 04:18:10;;;;;;;1.60;1.35;;;10.20;99.90;;;;;;5034297;28;20236;-86
2021/10/29 04:20:37;;;;;;;1.65;1.30;;;10.20;99.90;;;;;;5034201;28;20618;-86
2021/10/29 04:23:03;;;;;;;1.40;1.30;;;10.20;99.90;;;;;;5034560;28;20371;-87
2021/10/29 04:25:29;;;;;;;0.95;0.95;;;10.20;99.90;;;;;;5034047;28;20212;-86
2021/10/29 04:27:59;;;;;;;1.45;1.35;;;10.20;99.90;;;;;;5034157;28;20201;-86
2021/10/29 04:30:28;;;;;;;0.75;0.75;;;10.20;99.90;;;;;;5034144;28;20706;-87
2021/10/29 04:32:56;;;;;;;0.60;0.60;;;10.20;99.90;;;;;;5035507;28;20220;-87
2021/10/29 04:35:21;;;;;;;1.00;0.93;;;10.20;99.90;;;;;;5033798;28;20198;-87
2021/10/29 04:37:47;;;;;;;0.85;0.82;;;10.20;99.90;;;;;;5035416;28;20664;-86
2021/10/29 04:40:13;;;;;;;0.70;0.70;;;10.20;99.90;;;;;;5051964;28;20198;-86
2021/10/29 04:42:39;;;;;;;0.60;0.60;;;10.20;99.90;;;;;;5052830;28;21245;-85
2021/10/29 04:45:06;;;;;;;0.70;0.70;;;10.20;99.90;;;;;;5033887;28;20209;-86
2021/10/29 04:47:32;;;;;;;0.95;0.95;;;10.20;99.90;;;;;;5033878;28;20232;-86
2021/10/29 04:49:58;;;;;;;1.40;1.30;;;10.20;99.90;;;;;;5033839;28;20193;-86
2021/10/29 04:52:24;;;;;;;0.75;0.75;;;10.20;99.90;;;;;;5034725;28;20208;-86
2021/10/29 04:54:50;;;;;;;3.47;1.75;;;10.10;99.90;;;;;;5034208;28;20255;-86
2021/10/29 04:57:16;;;;;;;1.15;1.10;;;10.20;99.90;;;;;;5033625;28;20691;-86
2021/10/29 04:59:42;;;;;;;0.90;0.90;;;10.20;99.90;;;;;;5033895;28;20711;-86
2021/10/29 05:02:07;;;;;;;0.93;0.93;;;10.20;99.90;;;;;;5033575;28;20373;-86
2021/10/29 05:04:33;;;;;;;0.90;0.90;;;10.20;99.90;;;;;;5034785;28;20215;-86
2021/10/29 05:06:59;;;;;;;1.10;0.95;;;10.20;99.90;;;;;;5033984;28;20201;-86
2021/10/29 05:09:24;;;;;;;1.27;1.17;;;10.30;99.90;;;;;;5033400;28;20208;-86
2021/10/29 05:11:50;;;;;;;0.70;0.70;;;10.20;99.90;;;;;;5032745;28;20252;-87
2021/10/29 05:14:16;;;;;;;1.33;1.25;;;10.20;99.90;;;;;;5034739;28;20274;-86
2021/10/29 05:16:41;;;;;;;0.60;0.60;;;10.20;99.90;;;;;;5033444;28;20203;-86
2021/10/29 05:19:07;;;;;;;1.45;1.35;;;10.20;99.90;;;;;;5033598;28;20248;-86
2021/10/29 05:21:33;;;;;;;1.15;1.02;;;10.20;99.90;;;;;;5033228;28;20313;-85
2021/10/29 05:23:59;;;;;;;0.77;0.77;;;10.20;99.90;;;;;;5033429;28;20212;-87
2021/10/29 05:26:24;;;;;;;1.88;1.77;;;10.20;99.90;;;;;;5033024;28;20212;-86
2021/10/29 05:28:50;;;;;;;0.90;0.90;;;10.20;99.90;;;;;;5033393;28;20205;-86
2021/10/29 05:31:16;;;;;;;1.17;1.08;;;10.20;99.90;;;;;;5033412;28;20672;-86
2021/10/29 05:33:42;;;;;;;0.60;0.60;;;10.20;99.90;;;;;;5051022;28;20197;-86
2021/10/29 05:36:08;;;;;;;1.40;1.30;;;10.20;99.90;;;;;;5033305;28;20613;-86
2021/10/29 05:38:34;;;;;;;1.15;1.08;;;10.20;99.90;;;;;;5051115;28;20296;-86
2021/10/29 05:41:01;;;;;;;0.82;0.82;;;10.20;99.90;;;;;;5034523;28;20205;-88
2021/10/29 05:43:28;;;;;;;0.75;0.75;;;10.20;99.90;;;;;;5051239;28;20209;-87
2021/10/29 05:45:53;;;;;;;1.15;1.15;;;10.20;99.90;;;;;;5033917;28;20198;-86
2021/10/29 05:48:19;;;;;;;0.80;0.80;;;10.20;99.90;;;;;;5033706;28;20231;-86
2021/10/29 05:50:49;;;;;;;0.70;0.70;;;10.10;99.90;;;;;;5051061;28;20209;-86
2021/10/29 05:53:33;;;;;;;1.50;1.40;;;10.10;99.90;;;;;;5032983;28;20316;-87
2021/10/29 05:55:58;;;;;;;0.95;0.95;;;10.20;99.90;;;;;;5032513;28;20207;-86
2021/10/29 05:58:26;;;;;;;4.50;1.75;;;10.20;99.90;;;;;;5032774;28;20609;-86
2021/10/29 06:00:52;;;;;;;1.75;1.50;;;10.10;99.90;;;;;;5034465;28;20224;-86
2021/10/29 06:03:17;;;;;;;1.75;1.00;;;10.10;99.90;;;;;;5032992;28;20244;-86
2021/10/29 06:05:43;;;;;;;7.60;2.78;;;10.10;99.90;;;;;;5050965;28;20202;-86
2021/10/29 06:08:09;;;;;;;0.90;0.90;;;10.10;99.90;;;;;;5034339;28;20684;-86
2021/10/29 06:10:34;;;;;;;2.67;1.40;;;10.00;99.90;;;;;;5052019;28;20236;-86
2021/10/29 06:13:00;;;;;;;0.88;0.88;;;10.00;99.90;;;;;;5033036;28;20267;-87
2021/10/29 06:15:26;;;;;;;1.38;1.27;;;10.00;99.90;;;;;;5031472;28;20209;-87
2021/10/29 06:17:52;;;;;;;1.42;1.33;;;10.00;99.90;;;;;;5051013;28;20237;-87
2021/10/29 06:20:18;;;;;;;1.35;1.25;;;10.00;99.90;;;;;;5032996;28;20244;-87
2021/10/29 06:22:47;;;;;;;0.98;0.98;;;10.00;99.90;;;;;;5051984;28;20209;-87
2021/10/29 06:25:27;;;;;;;5.68;2.67;;;10.00;99.90;;;;;;5037508;28;20208;-87
2021/10/29 06:30:37;;;;;;;8.50;2.55;;;10.00;99.90;;;;;;5055879;28;20213;-87
2021/10/29 06:33:03;;;;;;;0.98;0.95;;;10.10;99.90;;;;;;5036220;28;20210;-87
2021/10/29 06:35:30;;;;;;;2.45;1.52;;;10.00;99.90;;;;;;5036502;28;20671;-87
2021/10/29 06:37:59;;;;;;;0.70;0.70;;;10.00;99.90;;;;;;5050682;28;20198;-87
2021/10/29 06:40:28;;;;;;;1.27;1.02;;;10.00;99.90;;;;;;5031485;28;20573;-87
2021/10/29 06:42:57;;;;;;;1.73;1.63;;;10.00;99.90;;;;;;5036380;28;20201;-87
2021/10/29 06:45:44;;;;;;;1.40;1.30;;;10.10;99.90;;;;;;5035974;28;20251;-87
2021/10/29 07:05:23;;;;;;;1.88;1.45;;;10.20;99.90;;;;;;5054364;28;20204;-87
2021/10/29 07:40:10;;;;;;;1.00;1.00;;;10.40;99.90;;;;;;5053513;28;20219;-87
2021/10/29 07:42:49;;;;;;;3.60;1.17;;;10.40;99.90;;;;;;5035154;28;20221;-88
2021/10/29 07:45:15;;;;;;;1.85;1.73;;;10.40;99.90;;;;;;5035118;28;20202;-87
2021/10/29 07:47:41;;;;;;;2.15;1.45;;;10.40;99.90;;;;;;5034914;28;20210;-87
2021/10/29 07:50:10;;;;;;;2.30;1.17;;;10.50;99.90;;;;;;5035921;28;20233;-87
2021/10/29 07:52:40;;;;;;;1.70;1.60;;;10.50;99.90;;;;;;5034590;28;20684;-88
2021/10/29 07:55:08;;;;;;;0.88;0.88;;;10.50;99.90;;;;;;5034753;28;20217;-87
2021/10/29 07:57:34;;;;;;;2.03;1.83;;;10.50;99.90;;;;;;5034484;28;20206;-87
2021/10/29 08:00:03;;;;;;;1.88;1.73;;;10.50;99.90;;;;;;5034698;28;20292;-87
2021/10/29 08:02:30;;;;;;;2.05;1.83;;;10.50;99.90;;;;;;5035879;28;20577;-87
2021/10/29 08:04:56;;;;;;;1.58;1.25;;;10.60;99.90;;;;;;5034710;28;20209;-88
2021/10/29 08:07:21;;;;;;;1.33;1.20;;;10.60;99.90;;;;;;5052486;28;20567;-86
2021/10/29 08:09:47;;;;;;;4.88;2.35;;;10.60;99.90;;;;;;5034761;28;20204;-87
2021/10/29 08:12:15;;;;;;;1.05;1.02;;;10.50;99.90;;;;;;5034451;28;20237;-86
2021/10/29 08:14:42;;;;;;;1.70;1.60;;;10.60;99.90;;;;;;5051517;28;20505;-86
2021/10/29 08:17:08;;;;;;;2.03;1.88;;;10.60;99.90;;;;;;5034415;28;20657;-87
2021/10/29 08:19:34;;;;;;;2.30;2.10;;;10.60;99.90;;;;;;5034497;28;20205;-87
2021/10/29 08:22:02;;;;;;;1.25;1.15;;;10.60;99.90;;;;;;5034269;28;20251;-86
2021/10/29 08:24:28;;;;;;;1.67;1.50;;;10.60;99.90;;;;;;5034250;28;20744;-86
2021/10/29 08:26:56;;;;;;;3.08;1.38;;;10.70;99.90;;;;;;5034206;28;20201;-86
2021/10/29 08:29:23;;;;;;;2.58;2.10;;;10.60;99.90;;;;;;5035330;28;20233;-86
2021/10/29 08:31:49;;;;;;;1.83;1.55;;;10.70;99.90;;;;;;5034348;28;20225;-87
2021/10/29 08:34:16;;;;;;;1.38;1.27;;;10.80;99.90;;;;;;5033982;28;20208;-86
2021/10/29 08:36:43;;;;;;;0.68;0.68;;;10.80;99.90;;;;;;5033888;28;20288;-86
2021/10/29 08:39:10;;;;;;;5.38;2.40;;;10.80;99.90;;;;;;5032809;28;20205;-86
2021/10/29 08:41:38;;;;;;;0.98;0.98;;;10.80;99.90;;;;;;5033729;28;20582;-88
2021/10/29 08:44:05;;;;;;;1.17;1.17;;;10.80;99.90;;;;;;5034556;28;20312;-86
2021/10/29 08:46:37;;;;;;;1.05;0.93;;;10.80;99.90;;;;;;5034875;28;20621;-86
2021/10/29 08:49:03;;;;;;;1.25;1.15;;;10.80;99.90;;;;;;5033973;28;20224;-87
2021/10/29 08:51:30;;;;;;;1.60;1.50;;;10.90;99.90;;;;;;5034048;28;20255;-86
2021/10/29 08:53:56;;;;;;;1.23;1.20;;;10.80;99.90;;;;;;5032149;28;20301;-86
2021/10/29 08:56:24;;;;;;;1.27;1.17;;;10.90;99.90;;;;;;5033812;28;20201;-86
2021/10/29 08:59:07;;;;;;;2.28;2.08;;;10.90;99.90;;;;;;5033745;28;20227;-87
2021/10/29 09:07:32;;;;;;;5.60;2.97;;;10.90;99.90;;;;;;5052906;28;20710;-87
2021/10/29 09:32:44;;;;;;;1.40;1.25;;;11.10;99.90;;;;;;5031381;28;20696;-87
2021/10/29 09:35:14;;;;;;;2.10;1.70;;;11.10;99.90;;;;;;5014747;28;20237;-86
2021/10/29 09:38:13;;;;;;;2.00;1.88;;;11.20;99.90;;;;;;5018501;28;20268;-87
2021/10/29 09:40:42;;;;;;;1.45;1.35;;;11.20;99.90;;;;;;4992452;28;20296;-87
2021/10/29 09:43:14;;;;;;;5.45;1.88;;;11.20;99.90;;;;;;5013977;28;20284;-87
2021/10/29 09:45:48;;;;;;;1.73;1.63;;;11.20;99.90;;;;;;5014796;28;20221;-86
2021/10/29 09:48:21;;;;;;;8.32;2.08;;;11.10;99.90;;;;;;5014460;28;20229;-87
2021/10/29 09:50:57;;;;;;;1.00;1.00;;;11.20;99.90;;;;;;4996591;28;20207;-86
2021/10/29 09:58:48;;;;;;;1.48;1.38;;;11.20;99.90;;;;;;5032238;28;20280;-86
2021/10/29 10:01:15;;;;;;;2.88;1.45;;;11.30;99.90;;;;;;5017202;28;20256;-86
2021/10/29 10:03:42;;;;;;;1.23;1.13;;;11.30;99.90;;;;;;5018530;28;20636;-87
2021/10/29 10:06:13;;;;;;;1.00;0.95;;;11.40;99.90;;;;;;5017501;28;20198;-86
2021/10/29 10:08:40;;;;;;;1.10;1.05;;;11.50;99.90;;;;;;5033336;28;20256;-87
2021/10/29 10:11:08;;;;;;;1.63;1.52;;;11.50;99.90;;;;;;5017171;28;20240;-87
2021/10/29 10:13:35;;;;;;;1.15;1.10;;;11.50;99.90;;;;;;5052083;28;20216;-88
2021/10/29 10:16:02;;;;;;;1.30;1.20;;;11.50;99.90;;;;;;5018312;28;20703;-86
2021/10/29 10:18:29;;;;;;;1.05;1.05;;;11.60;99.90;;;;;;5016727;28;20196;-87
2021/10/29 10:20:57;;;;;;;1.35;1.25;;;11.50;99.90;;;;;;5035898;28;20202;-87
2021/10/29 10:23:36;;;;;;;0.77;0.77;;;11.50;99.90;;;;;;5017627;28;20573;-87
2021/10/29 10:43:42;;;;;;;1.00;1.00;;;11.10;99.90;;;;;;5033989;28;20665;-87
2021/10/29 10:46:20;;;;;;;2.30;2.10;;;11.00;99.90;;;;;;4991725;28;20564;-87
2021/10/29 10:51:37;;;;;;;1.80;1.42;;;10.90;99.90;;;;;;5034168;28;20711;-88
2021/10/29 10:54:03;;;;;;;0.75;0.75;;;10.90;99.90;;;;;;5018543;28;20198;-88
2021/10/29 11:03:09;;;;;;;6.72;3.42;;;10.90;99.90;;;;;;5033865;28;20296;-87
2021/10/29 11:05:15;;;;;;;1.05;0.70;;;10.90;99.90;;;;;;5026461;28;20317;-86
2021/10/29 11:10:17;;;;;;;1.42;1.33;;;10.90;99.90;;;;;;5036230;28;20205;-87
2021/10/29 11:12:44;;;;;;;4.60;2.42;;;11.00;99.90;;;;;;5035904;28;20279;-86
2021/10/29 11:15:25;;;;;;;2.60;1.70;;;10.90;99.90;;;;;;5037001;28;20691;-87
2021/10/29 11:18:27;;;;;;;4.25;1.70;;;11.00;99.90;;;;;;5019166;28;20208;-87
2021/10/29 11:20:54;;;;;;;2.58;1.88;;;11.00;99.90;;;;;;5023059;28;20699;-86
2021/10/29 11:23:35;;;;;;;1.60;1.50;;;11.00;99.90;;;;;;5035676;28;20616;-86
2021/10/29 11:26:03;;;;;;;1.58;1.48;;;11.00;99.90;;;;;;5035640;28;20280;-86
2021/10/29 11:28:42;;;;;;;2.78;1.60;;;11.00;99.90;;;;;;5035463;28;20209;-86
2021/10/29 11:31:14;;;;;;;2.75;1.50;;;11.00;99.90;;;;;;5035610;28;20213;-86
2021/10/29 11:33:48;;;;;;;1.70;1.60;;;11.00;99.90;;;;;;5031972;28;20689;-86
2021/10/29 11:36:30;;;;;;;3.15;2.33;;;11.00;99.90;;;;;;5035451;28;20220;-87
2021/10/29 11:38:56;;;;;;;1.95;1.65;;;10.90;99.90;;;;;;5035782;28;20201;-87
2021/10/29 11:41:32;;;;;;;2.63;1.70;;;10.90;99.90;;;;;;5036547;28;20215;-87
2021/10/29 11:44:03;;;;;;;2.05;1.90;;;10.90;99.90;;;;;;5035445;28;20201;-87
2021/10/29 11:46:30;;;;;;;0.85;0.85;;;10.90;99.90;;;;;;5035129;28;20270;-87
2021/10/29 11:48:59;;;;;;;2.38;2.17;;;10.90;99.90;;;;;;5035316;28;20208;-86
2021/10/29 11:51:26;;;;;;;1.52;1.20;;;10.90;99.90;;;;;;5036258;28;20694;-87
2021/10/29 11:54:10;;;;;;;2.38;2.03;;;10.90;99.90;;;;;;5035254;28;20285;-87
2021/10/29 11:56:43;;;;;;;5.03;3.28;;;10.90;99.90;;;;;;5052829;28;20197;-87
2021/10/29 12:01:53;;;;;;;1.38;1.27;;;10.80;99.90;;;;;;5052400;28;20623;-87
2021/10/29 12:07:22;;;;;;;1.45;1.35;;;10.90;99.90;;;;;;5053255;28;20213;-87
2021/10/29 12:09:51;;;;;;;1.80;1.48;;;10.90;99.90;;;;;;5034771;28;20695;-87
2021/10/29 12:12:27;;;;;;;2.35;2.15;;;10.90;99.90;;;;;;5034546;28;20217;-87
2021/10/29 12:14:55;;;;;;;1.67;1.30;;;10.90;99.90;;;;;;5053938;28;20208;-87
2021/10/29 12:18:00;;;;;;;1.17;1.10;;;11.00;99.90;;;;;;5034379;28;20242;-87
2021/10/29 12:20:40;;;;;;;1.42;1.33;;;11.00;99.90;;;;;;5048407;28;20251;-87
2021/10/29 12:23:18;;;;;;;2.28;2.08;;;11.10;99.90;;;;;;5034253;28;20576;-87
2021/10/29 12:28:25;;;;;;;1.15;1.10;;;11.20;99.90;;;;;;5043092;28;20217;-87
2021/10/29 12:30:56;;;;;;;8.43;2.97;;;11.20;99.90;;;;;;5027406;28;20208;-88
2021/10/29 13:03:24;;;;;;;2.55;2.35;;;11.10;99.90;;;;;;5051960;28;20699;-87
2021/10/29 13:05:56;;;;;;;0.90;0.90;;;11.20;99.90;;;;;;5035345;28;20665;-87
2021/10/29 13:08:23;;;;;;;1.08;1.05;;;11.20;99.90;;;;;;5034028;28;20288;-87
2021/10/29 13:10:54;;;;;;;1.35;1.25;;;11.10;99.90;;;;;;5034915;28;20217;-87
2021/10/29 13:13:36;;;;;;;1.48;1.38;;;11.10;99.90;;;;;;5033394;28;20217;-87
2021/10/29 13:16:05;;;;;;;1.83;1.58;;;11.20;99.90;;;;;;5034985;28;20194;-86
2021/10/29 13:24:39;;;;;;;1.27;1.17;;;11.20;99.90;;;;;;5051435;28;20226;-87
2021/10/29 13:35:29;;;;;;;1.13;1.13;;;11.20;99.90;;;;;;5055598;28;20258;-87
2021/10/29 13:52:04;;;;;;;2.63;2.42;;;10.80;99.90;;;;;;5055488;28;20203;-88
2021/10/29 13:59:42;;;;;;;0.63;0.63;;;10.60;99.90;;;;;;5055671;28;20201;-87
2021/10/29 14:29:40;;;;;;;2.15;1.95;;;10.20;99.90;;;;;;5034229;28;20213;-87
2021/10/29 14:35:02;;;;;;;0.82;0.82;;;10.20;99.90;;;;;;5019492;28;20652;-88
2021/10/29 14:40:03;;;;;;;1.25;1.15;;;10.20;99.90;;;;;;5035584;28;20267;-90
2021/10/29 14:42:41;;;;;;;0.98;0.98;;;10.10;99.90;;;;;;5016792;28;20220;-88
2021/10/29 15:30:41;;;;;;;2.72;1.58;;;10.00;99.90;;;;;;5053774;28;20283;-85
2021/10/29 15:33:23;;;;;;;20.10;1.92;;;9.90;99.90;;;;;;5035743;28;20217;-84
2021/10/29 15:51:26;;;;;;;1.10;1.05;;;9.90;99.90;;;;;;5053065;28;20208;-85
2021/10/29 15:53:52;;;;;;;3.17;1.55;;;9.80;99.90;;;;;;5034975;28;20209;-86
2021/10/29 16:02:06;;;;;;;4.15;1.67;;;9.80;99.90;;;;;;5054414;28;20227;-85
2021/10/29 16:17:59;;;;;;;2.38;1.73;;;9.80;99.90;;;;;;5018258;28;20209;-86
2021/10/29 16:20:24;;;;;;;1.48;1.38;;;9.80;99.90;;;;;;5034330;28;20268;-86
2021/10/29 16:22:51;;;;;;;0.88;0.88;;;9.80;99.90;;;;;;5052113;28;20205;-85
2021/10/29 16:25:30;;;;;;;1.88;1.50;;;9.80;99.90;;;;;;5034352;28;20201;-85
2021/10/29 16:27:58;;;;;;;0.82;0.82;;;9.80;99.90;;;;;;5018121;28;20237;-86
2021/10/29 16:30:29;;;;;;;5.93;1.17;;;9.80;99.90;;;;;;5033895;28;20205;-86
2021/10/29 16:35:27;;;;;;;11.00;2.33;;;9.90;99.90;;;;;;5054773;28;20194;-88
2021/10/29 16:37:53;;;;;;;1.70;1.58;;;9.80;99.90;;;;;;5035857;28;20643;-92
2021/10/29 16:40:19;;;;;;;1.63;1.45;;;9.80;99.90;;;;;;5035169;28;20225;-87
2021/10/29 16:42:45;;;;;;;1.10;1.00;;;9.80;99.90;;;;;;5047723;28;20319;-88
2021/10/29 16:45:14;;;;;;;1.38;1.27;;;9.80;99.90;;;;;;5034938;28;20201;-89
2021/10/29 16:47:42;;;;;;;1.80;1.63;;;9.80;99.90;;;;;;5034547;28;20213;-89
2021/10/29 16:50:13;;;;;;;1.08;1.08;;;9.80;99.90;;;;;;5036424;28;20213;-89
2021/10/29 16:52:40;;;;;;;1.25;1.05;;;9.80;99.90;;;;;;5035691;28;20718;-88
2021/10/29 16:55:07;;;;;;;2.10;1.40;;;9.80;99.90;;;;;;5034763;28;20683;-89
2021/10/29 16:57:34;;;;;;;2.25;1.25;;;9.80;99.90;;;;;;5035075;28;20206;-88
2021/10/29 17:00:02;;;;;;;1.73;1.63;;;9.80;99.90;;;;;;5034801;28;20247;-88
2021/10/29 17:02:27;;;;;;;1.58;1.48;;;9.80;99.90;;;;;;5036175;28;20220;-91
2021/10/29 17:04:59;;;;;;;1.80;1.70;;;9.70;99.90;;;;;;5037357;28;20213;-95
2021/10/29 17:07:30;;;;;;;1.23;1.17;;;9.70;99.90;;;;;;5035658;28;20340;-92
2021/10/29 17:10:15;;;;;;;1.23;0.95;;;9.70;99.90;;;;;;5035248;28;20225;-92
2021/10/29 17:12:42;;;;;;;0.90;0.90;;;9.70;99.90;;;;;;5015696;28;20353;-90
2021/10/29 17:15:10;;;;;;;12.57;1.02;;;9.70;99.90;;;;;;5016054;28;20212;-90
2021/10/29 17:17:37;;;;;;;1.63;1.52;;;9.70;99.90;;;;;;5015275;28;20285;-90
2021/10/29 17:20:04;;;;;;;0.90;0.90;;;9.70;99.90;;;;;;5015003;28;20202;-90
2021/10/29 17:22:34;;;;;;;1.77;1.67;;;9.70;99.90;;;;;;5014786;28;20720;-91
2021/10/29 17:25:00;;;;;;;1.42;1.33;;;9.70;99.90;;;;;;5015710;28;20206;-91
2021/10/29 17:27:27;;;;;;;0.82;0.82;;;9.70;99.90;;;;;;5017108;28;20280;-92
2021/10/29 17:29:56;;;;;;;1.70;1.60;;;9.70;99.90;;;;;;5016053;28;20248;-92
2021/10/29 17:33:13;;;;;;;;;;;;;;;;;;;;;
2021/10/29 17:35:52;;;;;;;1.55;1.45;;;9.70;99.90;;;;;;5033898;28;20556;-93
2021/10/29 17:38:23;;;;;;;2.25;1.92;;;9.70;99.90;;;;;;5011548;28;20214;-91
2021/10/29 17:40:52;;;;;;;1.33;1.17;;;9.70;99.90;;;;;;5014730;28;20690;-92
2021/10/29 17:43:17;;;;;;;1.30;1.27;;;9.70;99.90;;;;;;5014563;28;20296;-89
2021/10/29 17:45:54;;;;;;;1.40;1.30;;;9.60;99.90;;;;;;5014794;28;20233;-91
2021/10/29 17:48:20;;;;;;;2.35;1.25;;;9.60;99.90;;;;;;5017514;28;20221;-88
2021/10/29 17:50:46;;;;;;;0.75;0.75;;;9.60;99.90;;;;;;5013997;28;20207;-89
2021/10/29 17:53:12;;;;;;;1.40;1.30;;;9.60;99.90;;;;;;5032299;28;20206;-89
2021/10/29 17:55:38;;;;;;;2.05;0.90;;;9.60;99.90;;;;;;5013779;28;20245;-88
2021/10/29 17:58:05;;;;;;;2.42;1.50;;;9.60;99.90;;;;;;5013923;28;20202;-88
2021/10/29 18:00:31;;;;;;;1.88;1.70;;;9.60;99.90;;;;;;5014116;28;20225;-86
2021/10/29 18:03:00;;;;;;;5.55;2.85;;;9.70;99.90;;;;;;5031507;28;20523;-88
2021/10/29 18:05:27;;;;;;;2.42;2.13;;;9.60;99.90;;;;;;5013501;28;20581;-86
2021/10/29 18:07:55;;;;;;;1.30;1.20;;;9.60;99.90;;;;;;5013673;28;20663;-87
2021/10/29 18:10:21;;;;;;;0.90;0.90;;;9.60;99.90;;;;;;5011345;28;20304;-87